Time;durP1;ratioP1;P1;durP2;ratioP2;P2;SDS_P1;SDS_P2;PMS_P1;PMS_P2;Temp;Humidity;BMP_temperature;BMP_pressure;BME280_temperature;BME280_humidity;BME280_pressure;Samples;Min_cycle;Max_cycle;Signal;HPM_P1;HPM_P2
2023/09/17 00:00:47;;;;;;;;;11.75;11.75;;;;;27.24;100.00;100561.75;2120278;27;45738;-62
2023/09/17 00:01:47;;;;;;;;;7.75;7.50;;;;;27.23;100.00;100552.72;2123434;27;46307;-62
2023/09/17 00:02:48;;;;;;;;;12.50;11.25;;;;;27.23;100.00;100555.47;2123491;27;46806;-62
2023/09/17 00:03:49;;;;;;;;;7.50;7.50;;;;;27.24;100.00;100550.88;2112809;27;46379;-62
2023/09/17 00:04:49;;;;;;;;;8.75;7.00;;;;;27.24;100.00;100557.19;2105729;27;45561;-62
2023/09/17 00:05:50;;;;;;;;;9.33;9.00;;;;;27.24;100.00;100550.88;2119104;27;46066;-62
2023/09/17 00:06:50;;;;;;;;;9.00;9.00;;;;;27.21;100.00;100553.88;2123223;27;46575;-60
2023/09/17 00:07:51;;;;;;;;;7.33;7.33;;;;;27.20;100.00;100555.75;2113858;27;46217;-63
2023/09/17 00:08:51;;;;;;;;;7.33;7.33;;;;;27.09;100.00;100555.91;2113900;27;46301;-62
2023/09/17 00:09:51;;;;;;;;;7.33;7.33;;;;;27.18;100.00;100556.88;2122990;27;46045;-63
2023/09/17 00:10:52;;;;;;;;;7.33;7.00;;;;;27.19;100.00;100556.75;2122779;27;46154;-63
2023/09/17 00:11:52;;;;;;;;;7.00;7.00;;;;;27.20;100.00;100563.06;2120844;27;46807;-64
2023/09/17 00:12:54;;;;;;;;;6.33;6.33;;;;;27.20;100.00;100554.91;2114738;27;46537;-61
2023/09/17 00:13:55;;;;;;;;;10.00;9.50;;;;;27.20;100.00;100563.06;2118481;27;46910;-62
2023/09/17 00:14:55;;;;;;;;;6.33;6.33;;;;;27.18;100.00;100557.72;2123534;27;46651;-62
2023/09/17 00:15:56;;;;;;;;;8.33;7.33;;;;;27.16;100.00;100557.03;2122818;27;46472;-62
2023/09/17 00:16:57;;;;;;;;;6.67;6.67;;;;;27.16;100.00;100556.16;2122547;27;46459;-62
2023/09/17 00:17:57;;;;;;;;;6.00;6.00;;;;;27.15;100.00;100551.72;2122962;27;46504;-62
2023/09/17 00:18:58;;;;;;;;;7.67;6.67;;;;;27.15;100.00;100546.28;2122813;27;46374;-61
2023/09/17 00:19:58;;;;;;;;;7.33;6.33;;;;;27.11;100.00;100550.31;2122668;27;46797;-62
2023/09/17 00:20:58;;;;;;;;;6.67;6.67;;;;;27.13;100.00;100543.69;2123004;27;46571;-62
2023/09/17 00:21:59;;;;;;;;;7.00;7.00;;;;;27.13;100.00;100545.56;2122278;27;45817;-62
2023/09/17 00:23:00;;;;;;;;;9.67;9.67;;;;;27.11;100.00;100548.44;2123183;27;46630;-62
2023/09/17 00:24:00;;;;;;;;;14.20;14.20;;;;;27.09;100.00;100547.72;2113524;27;46345;-63
2023/09/17 00:25:01;;;;;;;;;8.67;7.33;;;;;27.07;100.00;100547.00;2113466;27;46688;-62
2023/09/17 00:26:01;;;;;;;;;10.25;9.00;;;;;27.06;100.00;100549.84;2122563;27;46282;-62
2023/09/17 00:27:02;;;;;;;;;9.67;9.00;;;;;27.08;100.00;100543.28;2123134;27;46756;-61
2023/09/17 00:28:03;;;;;;;;;8.67;8.67;;;;;27.04;100.00;100554.59;2122077;27;46433;-62
2023/09/17 00:29:04;;;;;;;;;11.00;9.00;;;;;27.10;100.00;100549.44;2122720;27;46602;-62
2023/09/17 00:30:05;;;;;;;;;10.00;10.00;;;;;27.11;100.00;100547.56;2105084;28;46318;-61
2023/09/17 00:31:06;;;;;;;;;9.00;9.00;;;;;27.08;100.00;100556.03;2087027;28;46397;-61
2023/09/17 00:32:06;;;;;;;;;8.00;8.00;;;;;27.05;100.00;100551.72;2096100;28;46170;-62
2023/09/17 00:33:07;;;;;;;;;6.00;6.00;;;;;27.03;100.00;100547.41;2113763;27;46651;-62
2023/09/17 00:34:07;;;;;;;;;7.50;7.50;;;;;27.04;100.00;100554.59;2122531;27;46874;-62
2023/09/17 00:35:08;;;;;;;;;9.50;7.25;;;;;27.05;100.00;100548.13;2123086;27;46400;-62
2023/09/17 00:36:08;;;;;;;;;8.50;8.50;;;;;27.03;100.00;100544.69;2122942;27;46047;-61
2023/09/17 00:37:10;;;;;;;;;6.25;5.75;;;;;27.02;100.00;100546.56;2122733;27;45767;-62
2023/09/17 00:38:10;;;;;;;;;8.60;7.60;;;;;27.02;100.00;100546.56;2114424;27;46421;-62
2023/09/17 00:39:11;;;;;;;;;9.00;8.50;;;;;27.01;100.00;100547.56;2116088;27;46631;-62
2023/09/17 00:40:11;;;;;;;;;8.00;8.00;;;;;27.01;100.00;100547.56;2114700;27;46241;-61
2023/09/17 00:41:12;;;;;;;;;9.25;9.25;;;;;27.02;100.00;100548.44;2121287;27;46805;-62
2023/09/17 00:42:12;;;;;;;;;6.75;6.50;;;;;27.01;100.00;100543.97;2121524;27;46869;-61
2023/09/17 00:43:13;;;;;;;;;6.67;6.33;;;;;27.02;100.00;100542.97;2122207;27;45971;-62
2023/09/17 00:44:13;;;;;;;;;7.00;7.00;;;;;26.99;100.00;100542.25;2122774;27;46749;-62
2023/09/17 00:45:14;;;;;;;;;11.75;11.75;;;;;26.96;100.00;100545.25;2121417;27;46205;-62
2023/09/17 00:46:14;;;;;;;;;13.00;13.00;;;;;26.97;100.00;100537.94;2122700;27;46515;-62
2023/09/17 00:47:15;;;;;;;;;8.75;8.50;;;;;26.97;100.00;100546.97;2113623;27;46667;-61
2023/09/17 00:48:16;;;;;;;;;9.25;8.25;;;;;26.97;100.00;100543.38;2113803;27;46154;-61
2023/09/17 00:49:16;;;;;;;;;8.25;8.00;;;;;26.96;100.00;100541.66;2122311;27;46755;-61
2023/09/17 00:50:17;;;;;;;;;10.50;8.75;;;;;26.98;100.00;100537.78;2122779;27;46308;-61
2023/09/17 00:51:17;;;;;;;;;8.50;7.50;;;;;26.98;100.00;100548.69;2115192;27;46395;-62
2023/09/17 00:52:20;;;;;;;;;9.25;7.50;;;;;27.01;100.00;100546.69;2120476;27;46466;-62
2023/09/17 00:53:21;;;;;;;;;6.60;6.60;;;;;26.96;100.00;100550.69;2116281;27;46605;-61
2023/09/17 00:54:25;;;;;;;;;6.25;6.25;;;;;26.99;100.00;100544.09;2114058;27;46429;-62
2023/09/17 00:55:29;;;;;;;;;7.40;6.40;;;;;26.97;100.00;100552.41;2113844;27;46607;-62
2023/09/17 00:56:30;;;;;;;;;5.00;5.00;;;;;26.98;100.00;100547.81;2121720;27;46464;-62
2023/09/17 00:57:31;;;;;;;;;10.00;8.50;;;;;26.99;100.00;100547.69;2122212;27;46610;-63
2023/09/17 00:58:33;;;;;;;;;9.00;8.00;;;;;27.10;100.00;100544.00;2122604;27;46480;-63
2023/09/17 00:59:33;;;;;;;;;7.40;6.60;;;;;27.43;100.00;100542.66;2122791;27;46319;-62
2023/09/17 01:00:38;;;;;;;;;8.00;7.00;;;;;27.06;100.00;100542.56;2121741;27;46222;-62
2023/09/17 01:01:38;;;;;;;;;8.60;7.60;;;;;27.05;100.00;100545.41;2122627;27;46007;-62
2023/09/17 01:02:39;;;;;;;;;11.75;11.25;;;;;27.02;100.00;100542.97;2113671;27;46703;-62
2023/09/17 01:03:40;;;;;;;;;9.50;9.50;;;;;27.01;100.00;100543.97;2112090;27;46587;-62
2023/09/17 01:04:42;;;;;;;;;10.50;9.00;;;;;27.01;100.00;100549.41;2113812;27;46338;-62
2023/09/17 01:05:43;;;;;;;;;9.80;9.80;;;;;27.01;100.00;100554.84;2105384;27;46600;-61
2023/09/17 01:06:43;;;;;;;;;7.75;7.75;;;;;27.01;100.00;100541.22;2114615;27;46573;-62
2023/09/17 01:07:44;;;;;;;;;8.00;8.00;;;;;27.00;100.00;100540.38;2114074;27;46204;-62
2023/09/17 01:08:45;;;;;;;;;8.75;7.75;;;;;26.99;100.00;100544.97;2121262;27;46431;-63
2023/09/17 01:09:46;;;;;;;;;9.50;9.50;;;;;26.99;100.00;100542.25;2122483;27;46765;-62
2023/09/17 01:10:48;;;;;;;;;8.50;8.50;;;;;27.00;100.00;100545.81;2113909;27;46571;-62
2023/09/17 01:11:49;;;;;;;;;8.00;6.40;;;;;27.01;100.00;100541.22;2113561;27;46087;-62
2023/09/17 01:12:49;;;;;;;;;9.75;9.75;;;;;27.01;100.00;100550.28;2122546;27;46846;-61
2023/09/17 01:13:58;;;;;;;;;6.00;5.00;;;;;27.01;100.00;100546.69;2122625;27;46749;-62
2023/09/17 01:14:58;;;;;;;;;9.60;8.80;;;;;26.99;100.00;100541.38;2117221;27;46592;-63
2023/09/17 01:15:59;;;;;;;;;9.75;9.75;;;;;27.01;100.00;100547.56;2114615;27;46481;-63
2023/09/17 01:17:00;;;;;;;;;7.75;7.75;;;;;26.98;100.00;100545.97;2122815;27;46194;-62
2023/09/17 01:18:02;;;;;;;;;8.20;8.20;;;;;26.97;100.00;100538.81;2120572;27;46306;-62
2023/09/17 01:19:03;;;;;;;;;7.60;7.60;;;;;26.98;100.00;100547.81;2122761;27;46568;-62
2023/09/17 01:20:29;;;;;;;;;7.00;7.00;;;;;26.96;100.00;100538.94;2122742;27;46313;-62
2023/09/17 01:21:36;;;;;;;;;7.20;7.20;;;;;26.94;100.00;100533.66;2119683;27;47065;-63
2023/09/17 01:22:42;;;;;;;;;8.20;8.20;;;;;26.92;100.00;100541.06;2122591;27;46905;-62
2023/09/17 01:23:50;;;;;;;;;7.40;7.40;;;;;26.91;100.00;100539.34;2113446;27;46870;-62
2023/09/17 01:25:05;;;;;;;;;6.20;5.20;;;;;26.89;100.00;100533.19;2112738;27;46661;-62
2023/09/17 01:26:16;;;;;;;;;6.60;6.60;;;;;26.91;100.00;100542.06;2121977;27;46977;-62
2023/09/17 01:27:18;;;;;;;;;5.40;5.00;;;;;26.80;100.00;100535.91;2120502;27;46130;-61
2023/09/17 01:28:19;;;;;;;;;6.20;5.80;;;;;26.89;100.00;100537.78;2119688;27;46317;-62
2023/09/17 01:29:22;;;;;;;;;7.75;7.75;;;;;26.91;100.00;100535.78;2122926;27;46180;-62
2023/09/17 01:30:23;;;;;;;;;5.80;5.20;;;;;26.92;100.00;100541.06;2122242;27;46292;-62
2023/09/17 01:31:24;;;;;;;;;7.25;7.25;;;;;26.91;100.00;100533.06;2104312;28;46490;-62
2023/09/17 01:32:24;;;;;;;;;5.00;5.00;;;;;26.91;100.00;100538.50;2104242;27;46826;-62
2023/09/17 01:33:24;;;;;;;;;5.50;5.00;;;;;26.90;100.00;100543.09;2122301;27;46305;-63
2023/09/17 01:34:25;;;;;;;;;5.75;5.75;;;;;26.86;100.00;100536.22;2118133;27;46230;-63
2023/09/17 01:35:27;;;;;;;;;6.00;6.00;;;;;26.87;100.00;100545.25;2122464;27;46569;-62
2023/09/17 01:36:35;;;;;;;;;4.00;4.00;;;;;26.84;100.00;100538.22;2122788;27;46504;-62
2023/09/17 01:37:39;;;;;;;;;4.20;4.20;;;;;26.81;100.00;100533.06;2122680;27;46622;-62
2023/09/17 01:39:04;;;;;;;;;6.00;5.00;;;;;26.79;100.00;100543.22;2122244;27;46951;-63
2023/09/17 01:40:14;;;;;;;;;5.00;5.00;;;;;26.82;100.00;100537.50;2114864;27;46806;-62
2023/09/17 01:41:17;;;;;;;;;6.20;5.00;;;;;26.80;100.00;100544.06;2122497;27;46911;-62
2023/09/17 01:42:19;;;;;;;;;4.60;4.60;;;;;26.77;100.00;100539.78;2122368;27;46510;-62
2023/09/17 01:43:20;;;;;;;;;6.50;6.50;;;;;26.77;100.00;100541.63;2122339;27;46259;-63
2023/09/17 01:44:24;;;;;;;;;6.75;5.00;;;;;26.76;100.00;100546.22;2122270;27;45888;-61
2023/09/17 01:45:26;;;;;;;;;8.25;6.75;;;;;26.77;100.00;100544.38;2122418;27;46970;-61
2023/09/17 01:46:27;;;;;;;;;5.75;5.75;;;;;26.77;100.00;100545.22;2122353;27;46377;-63
2023/09/17 01:47:28;;;;;;;;;7.25;7.00;;;;;26.78;100.00;100540.63;2118197;27;46780;-63
2023/09/17 01:48:29;;;;;;;;;4.75;4.75;;;;;26.76;100.00;100539.94;2119400;27;46432;-63
2023/09/17 01:49:32;;;;;;;;;6.00;6.00;;;;;26.74;100.00;100537.34;2122653;27;46870;-62
2023/09/17 01:50:33;;;;;;;;;4.50;4.50;;;;;26.71;100.00;100544.94;2120829;27;46835;-62
2023/09/17 01:51:34;;;;;;;;;7.00;7.00;;;;;26.68;100.00;100537.94;2119557;27;46988;-62
2023/09/17 01:52:35;;;;;;;;;8.67;7.33;;;;;26.66;100.00;100540.75;2117454;27;46590;-61
2023/09/17 01:53:36;;;;;;;;;7.00;7.00;;;;;26.63;100.00;100534.75;2116549;27;46302;-62
2023/09/17 01:54:37;;;;;;;;;7.50;6.25;;;;;26.61;100.00;100539.47;2121838;27;46405;-62
2023/09/17 01:55:37;;;;;;;;;5.67;5.67;;;;;26.59;100.00;100544.22;2118516;27;46162;-61
2023/09/17 01:56:38;;;;;;;;;7.00;6.00;;;;;26.58;100.00;100545.22;2121336;27;46661;-61
2023/09/17 01:57:39;;;;;;;;;6.00;6.00;;;;;26.57;100.00;100544.34;2113403;27;46268;-60
2023/09/17 01:58:39;;;;;;;;;4.75;4.75;;;;;26.56;100.00;100545.34;2112826;27;46401;-63
2023/09/17 01:59:40;;;;;;;;;7.50;6.75;;;;;26.55;100.00;100545.47;2122315;27;46289;-62
2023/09/17 02:00:40;;;;;;;;;7.00;6.50;;;;;26.54;100.00;100547.31;2126836;27;46416;-63
2023/09/17 02:01:41;;;;;;;;;6.75;6.75;;;;;26.50;100.00;100545.91;2108122;27;46225;-62
2023/09/17 02:02:49;;;;;;;;;4.40;4.40;;;;;26.53;100.00;100547.47;2104289;27;46424;-63
2023/09/17 02:03:50;;;;;;;;;3.75;3.75;;;;;26.51;100.00;100544.03;2114024;27;46745;-63
2023/09/17 02:04:50;;;;;;;;;7.00;7.00;;;;;26.50;100.00;100545.03;2103777;28;46675;-62
2023/09/17 02:05:50;;;;;;;;;6.67;6.00;;;;;26.50;100.00;100545.03;2104291;28;46212;-64
2023/09/17 02:06:53;;;;;;;;;5.33;5.00;;;;;26.53;100.00;100540.16;2111814;27;46166;-62
2023/09/17 02:07:54;;;;;;;;;5.00;5.00;;;;;26.55;100.00;100540.03;2114052;27;45715;-63
2023/09/17 02:08:54;;;;;;;;;6.00;6.00;;;;;26.53;100.00;100534.72;2122420;27;46626;-62
2023/09/17 02:09:55;;;;;;;;;8.00;8.00;;;;;26.54;100.00;100541.03;2120860;27;46364;-62
2023/09/17 02:10:55;;;;;;;;;9.00;7.33;;;;;26.54;100.00;100541.88;2122605;27;46143;-63
2023/09/17 02:11:55;;;;;;;;;6.67;6.33;;;;;26.55;100.00;100540.91;2122219;27;46770;-63
2023/09/17 02:12:55;;;;;;;;;8.00;6.75;;;;;26.58;100.00;100539.75;2121715;27;46210;-61
2023/09/17 02:13:56;;;;;;;;;5.50;5.50;;;;;26.59;100.00;100530.59;2113008;27;46965;-63
2023/09/17 02:14:56;;;;;;;;;6.00;6.00;;;;;26.59;100.00;100531.47;2113468;27;46457;-63
2023/09/17 02:15:56;;;;;;;;;7.75;6.75;;;;;26.60;100.00;100533.19;2121556;27;46290;-64
2023/09/17 02:16:57;;;;;;;;;6.50;6.25;;;;;26.60;100.00;100535.91;2121772;27;46959;-63
2023/09/17 02:17:57;;;;;;;;;8.33;7.33;;;;;26.58;100.00;100528.88;2122353;27;46816;-63
2023/09/17 02:18:59;;;;;;;;;6.67;6.00;;;;;26.58;100.00;100529.75;2122011;27;46774;-62
2023/09/17 02:19:59;;;;;;;;;5.75;5.75;;;;;26.57;100.00;100533.47;2122209;27;46211;-62
2023/09/17 02:20:59;;;;;;;;;5.00;5.00;;;;;26.58;100.00;100532.47;2119308;27;46178;-63
2023/09/17 02:21:59;;;;;;;;;7.67;7.00;;;;;26.60;100.00;100532.31;2113910;27;46668;-62
2023/09/17 02:23:00;;;;;;;;;6.00;5.67;;;;;26.59;100.00;100528.75;2119818;27;46387;-62
2023/09/17 02:24:01;;;;;;;;;5.33;5.33;;;;;26.58;100.00;100523.44;2120598;27;45471;-62
2023/09/17 02:25:02;;;;;;;;;5.67;5.33;;;;;26.56;100.00;100526.31;2112913;27;46897;-62
2023/09/17 02:26:02;;;;;;;;;7.67;7.00;;;;;26.55;100.00;100526.41;2116757;27;46338;-62
2023/09/17 02:27:03;;;;;;;;;9.67;8.67;;;;;26.54;100.00;100520.13;2113122;27;46694;-61
2023/09/17 02:28:03;;;;;;;;;7.00;6.67;;;;;26.52;100.00;100526.69;2113413;27;46104;-61
2023/09/17 02:29:05;;;;;;;;;6.33;6.33;;;;;26.51;100.00;100520.41;2113143;27;46290;-62
2023/09/17 02:30:06;;;;;;;;;7.00;5.50;;;;;26.53;100.00;100526.56;2113024;27;45848;-61
2023/09/17 02:31:06;;;;;;;;;7.67;7.67;;;;;26.53;100.00;100522.97;2121968;27;46592;-62
2023/09/17 02:32:07;;;;;;;;;5.33;5.33;;;;;26.55;100.00;100524.59;2113022;27;46630;-62
2023/09/17 02:33:10;;;;;;;;;8.33;7.33;;;;;26.53;100.00;100518.41;2112691;27;46691;-61
2023/09/17 02:34:10;;;;;;;;;5.75;5.75;;;;;26.55;100.00;100520.97;2122024;27;47067;-61
2023/09/17 02:35:11;;;;;;;;;5.00;5.00;;;;;26.53;100.00;100514.81;2112941;27;46338;-62
2023/09/17 02:36:13;;;;;;;;;4.00;4.00;;;;;26.54;100.00;100514.66;2112882;27;46314;-63
2023/09/17 02:37:13;;;;;;;;;6.25;6.25;;;;;26.52;100.00;100513.94;2122217;27;46830;-63
2023/09/17 02:38:13;;;;;;;;;6.00;6.00;;;;;26.52;100.00;100515.81;2122198;27;46930;-62
2023/09/17 02:39:14;;;;;;;;;7.67;5.67;;;;;26.52;100.00;100508.50;2121681;27;45807;-61
2023/09/17 02:40:14;;;;;;;;;5.33;4.33;;;;;26.52;100.00;100513.09;2122206;27;46312;-62
2023/09/17 02:41:14;;;;;;;;;6.00;6.00;;;;;26.53;100.00;100507.50;2121067;27;45047;-62
2023/09/17 02:42:15;;;;;;;;;4.33;4.33;;;;;26.55;100.00;100513.69;2122635;27;46814;-62
2023/09/17 02:43:15;;;;;;;;;7.67;6.00;;;;;26.57;100.00;100517.13;2121738;27;46397;-62
2023/09/17 02:44:15;;;;;;;;;6.33;6.33;;;;;26.58;100.00;100512.56;2122117;27;46677;-62
2023/09/17 02:45:16;;;;;;;;;7.00;6.00;;;;;26.56;100.00;100517.28;2122151;27;46540;-61
2023/09/17 02:46:18;;;;;;;;;6.67;5.67;;;;;26.53;100.00;100518.41;2122312;27;46568;-62
2023/09/17 02:47:18;;;;;;;;;7.75;5.75;;;;;26.53;100.00;100512.09;2122121;27;46395;-62
2023/09/17 02:48:18;;;;;;;;;5.67;5.67;;;;;26.51;100.00;100514.97;2122212;27;46240;-62
2023/09/17 02:49:22;;;;;;;;;5.67;5.67;;;;;26.50;100.00;100521.41;2122062;27;46441;-61
2023/09/17 02:50:22;;;;;;;;;5.25;5.25;;;;;26.51;100.00;100516.81;2120015;27;46688;-62
2023/09/17 02:51:22;;;;;;;;;7.33;7.33;;;;;26.50;100.00;100517.81;2121591;27;46262;-62
2023/09/17 02:52:23;;;;;;;;;4.33;4.33;;;;;26.49;100.00;100516.09;2121903;27;46823;-62
2023/09/17 02:53:23;;;;;;;;;4.33;4.33;;;;;26.49;100.00;100521.53;2122076;27;46302;-61
2023/09/17 02:54:24;;;;;;;;;5.00;5.00;;;;;26.49;100.00;100516.09;2122367;27;46992;-61
2023/09/17 02:55:24;;;;;;;;;5.33;5.33;;;;;26.49;100.00;100527.00;2121935;27;46645;-61
2023/09/17 02:56:25;;;;;;;;;5.67;5.67;;;;;26.47;100.00;100524.41;2122039;27;46494;-61
2023/09/17 02:57:25;;;;;;;;;6.00;5.33;;;;;26.46;100.00;100528.13;2121786;27;46563;-62
2023/09/17 02:58:25;;;;;;;;;5.00;5.00;;;;;26.47;100.00;100523.56;2118580;27;46512;-62
2023/09/17 02:59:26;;;;;;;;;7.67;6.33;;;;;26.48;100.00;100519.84;2121739;27;46545;-62
2023/09/17 03:00:26;;;;;;;;;4.00;4.00;;;;;26.50;100.00;100515.97;2121120;27;46701;-60
2023/09/17 03:01:26;;;;;;;;;6.00;5.67;;;;;26.50;100.00;100518.69;2118389;27;46259;-61
2023/09/17 03:02:27;;;;;;;;;6.00;5.67;;;;;26.53;100.00;100520.25;2121468;27;46631;-61
2023/09/17 03:03:28;;;;;;;;;6.00;5.25;;;;;26.53;100.00;100512.94;2121870;27;46754;-62
2023/09/17 03:04:28;;;;;;;;;5.67;5.67;;;;;26.55;100.00;100516.41;2117177;27;46334;-62
2023/09/17 03:05:28;;;;;;;;;5.00;5.00;;;;;26.53;100.00;100512.94;2121826;27;46740;-62
2023/09/17 03:06:30;;;;;;;;;3.00;3.00;;;;;26.51;100.00;100514.97;2121858;27;46379;-62
2023/09/17 03:07:31;;;;;;;;;8.25;6.75;;;;;26.50;100.00;100515.97;2113555;27;46339;-62
2023/09/17 03:08:32;;;;;;;;;5.75;5.75;;;;;26.47;100.00;100513.53;2103662;27;46340;-62
2023/09/17 03:09:33;;;;;;;;;6.00;6.00;;;;;26.46;100.00;100511.81;2120699;27;46456;-61
2023/09/17 03:10:41;;;;;;;;;4.75;4.75;;;;;26.46;100.00;100508.22;2119382;27;46569;-61
2023/09/17 03:11:41;;;;;;;;;5.75;5.75;;;;;26.47;100.00;100509.94;2120485;27;46480;-63
2023/09/17 03:12:42;;;;;;;;;5.33;5.33;;;;;26.47;100.00;100505.38;2120016;27;46758;-63
2023/09/17 03:13:46;;;;;;;;;5.00;5.00;;;;;26.48;100.00;100504.38;2116008;27;46604;-63
2023/09/17 03:14:46;;;;;;;;;6.75;5.75;;;;;26.46;100.00;100508.22;2112544;27;46791;-63
2023/09/17 03:15:46;;;;;;;;;6.00;4.00;;;;;26.49;100.00;100508.81;2105324;28;46236;-63
2023/09/17 03:16:47;;;;;;;;;6.67;6.67;;;;;26.48;100.00;100509.81;2106372;27;47009;-63
2023/09/17 03:17:47;;;;;;;;;4.00;4.00;;;;;26.49;100.00;100508.81;2122896;27;45772;-62
2023/09/17 03:18:47;;;;;;;;;5.00;4.00;;;;;26.49;100.00;100511.53;2116969;27;46513;-62
2023/09/17 03:19:48;;;;;;;;;6.67;6.67;;;;;26.50;100.00;100517.81;2113740;27;46956;-62
2023/09/17 03:20:49;;;;;;;;;6.67;6.67;;;;;26.46;100.00;100516.41;2116543;27;46646;-62
2023/09/17 03:21:49;;;;;;;;;4.25;4.25;;;;;26.44;100.00;100504.78;2116569;27;46936;-62
2023/09/17 03:22:49;;;;;;;;;6.00;5.33;;;;;26.43;100.00;100508.53;2122276;27;46835;-63
2023/09/17 03:23:50;;;;;;;;;5.33;5.33;;;;;26.42;100.00;100514.94;2121023;27;46505;-62
2023/09/17 03:24:50;;;;;;;;;5.67;5.67;;;;;26.40;100.00;100512.34;2114981;27;46817;-62
2023/09/17 03:25:51;;;;;;;;;5.67;5.33;;;;;26.39;100.00;100510.63;2115956;27;46085;-62
2023/09/17 03:26:51;;;;;;;;;6.67;6.67;;;;;26.40;100.00;100501.47;2109785;27;46195;-62
2023/09/17 03:27:51;;;;;;;;;7.00;5.67;;;;;26.40;100.00;100504.19;2114014;27;46488;-62
2023/09/17 03:28:52;;;;;;;;;5.67;5.67;;;;;26.40;100.00;100502.31;2105609;27;46605;-61
2023/09/17 03:29:52;;;;;;;;;6.00;6.00;;;;;26.40;100.00;100507.78;2113995;27;45551;-62
2023/09/17 03:30:53;;;;;;;;;5.00;5.00;;;;;26.43;100.00;100506.66;2112851;27;46058;-61
2023/09/17 03:31:53;;;;;;;;;6.00;6.00;;;;;26.42;100.00;100509.50;2119905;27;46496;-63
2023/09/17 03:32:54;;;;;;;;;6.00;6.00;;;;;26.45;100.00;100506.50;2122247;27;46648;-62
2023/09/17 03:33:55;;;;;;;;;5.00;5.00;;;;;26.45;100.00;100510.09;2121833;27;46428;-61
2023/09/17 03:34:56;;;;;;;;;5.75;5.75;;;;;26.36;100.00;100514.50;2110483;27;46246;-62
2023/09/17 03:35:59;;;;;;;;;7.25;7.25;;;;;26.46;100.00;100502.78;2113740;27;46291;-63
2023/09/17 03:36:59;;;;;;;;;4.00;4.00;;;;;26.47;100.00;100510.81;2104682;28;46853;-63
2023/09/17 03:37:59;;;;;;;;;7.00;7.00;;;;;26.45;100.00;100503.78;2104963;27;46728;-63
2023/09/17 03:39:00;;;;;;;;;4.33;4.33;;;;;26.46;100.00;100508.22;2114168;27;46165;-62
2023/09/17 03:40:08;;;;;;;;;8.33;6.67;;;;;26.46;100.00;100500.94;2113484;27;46376;-62
2023/09/17 03:41:08;;;;;;;;;7.25;7.25;;;;;26.46;100.00;100505.50;2122316;27;46979;-62
2023/09/17 03:42:09;;;;;;;;;8.00;6.00;;;;;26.47;100.00;100504.50;2122531;27;46302;-63
2023/09/17 03:43:09;;;;;;;;;5.50;5.50;;;;;26.48;100.00;100506.22;2121815;27;46361;-60
2023/09/17 03:44:09;;;;;;;;;6.00;5.33;;;;;26.49;100.00;100500.63;2120934;27;46220;-63
2023/09/17 03:45:12;;;;;;;;;5.00;4.00;;;;;26.48;100.00;100504.38;2114049;27;46368;-63
2023/09/17 03:46:12;;;;;;;;;4.50;4.50;;;;;26.47;100.00;100499.91;2118428;27;46312;-62
2023/09/17 03:47:12;;;;;;;;;4.75;4.75;;;;;26.47;100.00;100504.50;2123146;27;46184;-62
2023/09/17 03:48:13;;;;;;;;;6.33;5.33;;;;;26.43;100.00;100498.50;2123206;27;46541;-63
2023/09/17 03:49:13;;;;;;;;;5.00;5.00;;;;;26.44;100.00;100502.94;2118686;27;46251;-63
2023/09/17 03:50:16;;;;;;;;;5.00;5.00;;;;;26.49;100.00;100505.22;2114489;27;46373;-63
2023/09/17 03:51:16;;;;;;;;;5.20;5.20;;;;;26.48;100.00;100503.50;2121943;27;46888;-63
2023/09/17 03:52:16;;;;;;;;;5.25;5.25;;;;;26.47;100.00;100510.81;2123225;27;46331;-63
2023/09/17 03:53:17;;;;;;;;;5.50;5.50;;;;;26.47;100.00;100501.78;2114598;27;46271;-61
2023/09/17 03:54:17;;;;;;;;;4.50;4.50;;;;;26.44;100.00;100505.66;2119972;27;46200;-62
2023/09/17 03:55:18;;;;;;;;;6.00;6.00;;;;;26.45;100.00;100504.66;2122771;27;46709;-63
2023/09/17 03:56:19;;;;;;;;;6.00;6.00;;;;;26.44;100.00;100504.78;2122915;27;46286;-63
2023/09/17 03:57:19;;;;;;;;;6.00;6.00;;;;;26.43;100.00;100503.94;2123045;27;46227;-63
2023/09/17 03:58:21;;;;;;;;;5.00;5.00;;;;;26.42;100.00;100499.47;2122847;27;47104;-63
2023/09/17 03:59:22;;;;;;;;;5.00;5.00;;;;;26.40;100.00;100501.47;2123177;27;46078;-63
2023/09/17 04:00:23;;;;;;;;;5.75;5.75;;;;;26.32;100.00;100507.59;2104798;28;46315;-63
2023/09/17 04:01:24;;;;;;;;;7.00;7.00;;;;;26.30;100.00;100504.16;2105046;27;46261;-62
2023/09/17 04:02:25;;;;;;;;;4.25;3.00;;;;;26.33;100.00;100503.00;2118093;27;46227;-63
2023/09/17 04:03:26;;;;;;;;;5.00;5.00;;;;;26.36;100.00;100505.47;2115323;27;46535;-63
2023/09/17 04:04:26;;;;;;;;;4.00;3.00;;;;;26.25;100.00;100500.13;2122023;27;46314;-63
2023/09/17 04:05:28;;;;;;;;;4.50;4.50;;;;;26.24;100.00;100501.97;2122954;27;46251;-63
2023/09/17 04:06:29;;;;;;;;;4.40;4.40;;;;;26.26;100.00;100499.97;2121761;27;46355;-63
2023/09/17 04:07:29;;;;;;;;;7.40;6.40;;;;;26.23;100.00;100496.69;2122954;27;46426;-63
2023/09/17 04:08:30;;;;;;;;;4.25;4.25;;;;;26.28;100.00;100497.97;2123305;27;45135;-62
2023/09/17 04:09:31;;;;;;;;;5.75;5.75;;;;;26.27;100.00;100496.25;2122835;27;46297;-63
2023/09/17 04:10:31;;;;;;;;;3.00;3.00;;;;;26.28;100.00;100499.84;2122916;27;46157;-63
2023/09/17 04:11:32;;;;;;;;;7.25;6.25;;;;;26.29;100.00;100494.25;2123210;27;46195;-63
2023/09/17 04:12:33;;;;;;;;;5.75;5.75;;;;;26.28;100.00;100497.97;2123271;27;46757;-62
2023/09/17 04:13:33;;;;;;;;;5.00;5.00;;;;;26.37;100.00;100494.44;2122743;27;46613;-63
2023/09/17 04:14:34;;;;;;;;;5.00;5.00;;;;;26.37;100.00;100494.44;2122991;27;46327;-61
2023/09/17 04:15:35;;;;;;;;;5.00;5.00;;;;;26.36;100.00;100494.59;2123104;27;46370;-62
2023/09/17 04:16:35;;;;;;;;;5.40;4.80;;;;;26.33;100.00;100494.84;2121741;27;46485;-63
2023/09/17 04:17:36;;;;;;;;;6.00;6.00;;;;;26.32;100.00;100498.56;2123464;27;46224;-63
2023/09/17 04:18:36;;;;;;;;;6.00;6.00;;;;;26.30;100.00;100504.16;2122153;27;46486;-63
2023/09/17 04:19:36;;;;;;;;;6.25;4.50;;;;;26.29;100.00;100494.25;2113974;27;46677;-63
2023/09/17 04:20:37;;;;;;;;;6.00;6.00;;;;;26.30;100.00;100495.13;2113911;27;46632;-63
2023/09/17 04:21:37;;;;;;;;;5.75;5.75;;;;;26.31;100.00;100499.59;2116526;27;46482;-63
2023/09/17 04:22:38;;;;;;;;;5.75;5.75;;;;;26.28;100.00;100503.41;2121684;27;46867;-63
2023/09/17 04:23:38;;;;;;;;;6.50;5.50;;;;;26.32;100.00;100502.16;2122656;27;46824;-63
2023/09/17 04:24:38;;;;;;;;;4.00;4.00;;;;;26.31;100.00;100499.59;2123150;27;45060;-63
2023/09/17 04:25:39;;;;;;;;;7.00;6.00;;;;;26.32;100.00;100502.16;2117624;27;47042;-63
2023/09/17 04:26:39;;;;;;;;;5.00;5.00;;;;;26.28;100.00;100503.41;2122992;27;46080;-63
2023/09/17 04:27:41;;;;;;;;;5.75;5.75;;;;;26.27;100.00;100504.41;2123495;27;46271;-62
2023/09/17 04:28:42;;;;;;;;;4.00;4.00;;;;;26.30;100.00;100515.03;2122536;27;46315;-61
2023/09/17 04:29:43;;;;;;;;;5.20;4.80;;;;;26.30;100.00;100504.16;2122858;27;46571;-62
2023/09/17 04:30:43;;;;;;;;;5.25;5.25;;;;;26.32;100.00;100504.88;2123257;27;46791;-61
2023/09/17 04:31:43;;;;;;;;;5.75;5.00;;;;;26.30;100.00;100500.59;2122677;27;46589;-62
2023/09/17 04:32:45;;;;;;;;;5.00;5.00;;;;;26.32;100.00;100499.44;2122948;27;46479;-62
2023/09/17 04:33:45;;;;;;;;;5.20;5.20;;;;;26.32;100.00;100504.88;2114360;27;46548;-63
2023/09/17 04:34:45;;;;;;;;;5.00;5.00;;;;;26.32;100.00;100510.31;2121854;27;46694;-63
2023/09/17 04:35:46;;;;;;;;;6.00;6.00;;;;;26.32;100.00;100506.75;2123047;27;46554;-62
2023/09/17 04:36:47;;;;;;;;;4.00;4.00;;;;;26.29;100.00;100505.13;2122836;27;46139;-61
2023/09/17 04:37:49;;;;;;;;;5.40;5.40;;;;;26.27;100.00;100503.56;2121652;27;46656;-62
2023/09/17 04:38:51;;;;;;;;;4.20;4.20;;;;;26.22;100.00;100494.97;2123650;27;46156;-63
2023/09/17 04:39:51;;;;;;;;;5.00;4.40;;;;;26.21;100.00;100501.41;2117330;27;46970;-63
2023/09/17 04:40:51;;;;;;;;;5.75;4.75;;;;;26.18;100.00;100491.66;2114652;27;46342;-63
2023/09/17 04:41:52;;;;;;;;;4.25;4.25;;;;;26.18;100.00;100496.25;2123113;27;46736;-62